Pahranagat National Wildlife Refuge, Nevada Weather observations

Data are for 10 minute period ending at time listed.
 Day   Time   Solar   Ave.   Ave.  Ave.  Vector  Max.   Baro.   Total    
  of    of     Rad.   Air    Rel.  Wind   Wind   Wind  Press.  Precip.   
Year   Day            Temp.  Hum.  Speed  Dir.   Gust                    
2014   (PST)  Kw/m2    F      %     mph   deg.    mph    mb.     in.     
-------------------------------------------------------------------------
 244   12:50   0.80   97.8    11    2.4   117     8.6   899.1    0.00 
 244   13:00   0.79   96.3    12    5.7   101    12.7   898.9    0.00 
 244   13:10   0.77   95.5    12    6.7   115    11.0   898.8    0.00 
 244   13:20   0.76   96.1    12    5.9   113    11.8   898.7    0.00 
 244   13:30   0.75   96.6    12    2.5   121     6.2   898.7    0.00 
 244   13:40   0.73   97.7    12    4.7   169    10.7   898.5    0.00 
 244   13:50   0.71   96.4    12    6.0   106    10.8   898.4    0.00 
 244   14:00   0.69   96.1    13    8.5   145    12.8   898.3    0.00 
 244   14:10   0.67   96.5    12    3.6    85     9.1   898.2    0.00 
 244   14:20   0.65   96.7    12    6.6   102    12.3   898.1    0.00 
 244   14:30   0.63   96.6    12    6.8   127    14.5   898.0    0.00 
 244   14:40   0.61   96.2    12    8.0   143    12.8   897.9    0.00 
 244   14:50   0.58   96.5    13    7.2   160    11.6   897.8    0.00 
 244   15:00   0.56   95.8    13    8.5   142    12.9   897.7    0.00 
 244   15:10   0.53   95.5    12    7.6   130    13.7   897.7    0.00 
 244   15:20   0.50   96.0    12    6.6   144    13.4   897.7    0.00 
 244   15:30   0.47   96.7    12    5.5   130    11.7   897.6    0.00 
 244   15:40   0.44   95.4    13    7.7   148    13.6   897.6    0.00 
 244   15:50   0.41   95.8    12    5.3   135    11.0   897.5    0.00 
 244   16:00   0.38   95.1    12    8.5   141    12.4   897.4    0.00 
 244   16:10   0.35   94.3    13    7.9   145    12.4   897.4    0.00 
 244   16:20   0.32   93.8    14    8.2   145    12.4   897.4    0.00 
 244   16:30   0.28   93.8    12    8.8   135    15.0   897.3    0.00 
 244   16:40   0.25   93.1    14    7.7   150    11.6   897.3    0.00 
 244   16:50   0.22   92.3    14    7.6   148    11.8   897.2    0.00 
 244   17:00   0.19   91.6    15    7.5   143    12.9   897.2    0.00 
 244   17:10   0.16   91.1    15    8.1   144    12.3   897.2    0.00 
 244   17:20   0.13   90.4    16    7.0   145    11.0   897.1    0.00 
 244   17:30   0.10   89.2    16    7.2   145    11.0   897.0    0.00 
 244   17:40   0.06   88.0    19    5.9   142     9.0   897.0    0.00 
 244   17:50   0.02   85.3    22    5.2   142     7.2   896.9    0.00 
 244   18:00   0.01   83.2    22    5.2   147     7.2   896.8    0.00 
 244   18:10   0.01   82.6    22    5.4   141     6.9   896.8    0.00 
 244   18:20   0.00   81.9    22    5.0   145     6.4   896.8    0.00 
 244   18:30   0.00   80.7    23    4.8   137     6.2   896.8    0.00 
 244   18:40   0.00   81.7    22    5.4   126     6.4   896.9    0.00 
 244   18:50   0.00   82.9    19    5.0   124     6.1   897.0    0.00 
 244   19:00   0.00   82.5    19    5.3   124     6.1   897.1    0.00 
 244   19:10   0.00   82.5    19    5.2   120     6.7   897.3    0.00 
 244   19:20   0.00   82.7    18    4.9   123     6.3   897.4    0.00 
 244   19:30   0.00   83.2    17    4.4   113     6.0   897.6    0.00 
 244   19:40   0.00   82.8    17    4.8   111     6.2   897.7    0.00 
 244   19:50   0.00   81.5    19    3.9   117     5.2   897.8    0.00 
 244   20:00   0.00   79.4    21    2.8   127     3.8   897.9    0.00 
 244   20:10   0.00   78.7    21    2.5   109     4.0   898.0    0.00 
 244   20:20   0.00   78.3    20    4.0   100     5.3   898.2    0.00 
 244   20:30   0.00   77.6    24    2.6    95     4.7   898.3    0.00 
 244   20:40   0.00   69.5    34    0.9   171     2.3   898.4    0.00 
 244   20:50   0.00   65.8    43    1.7   243     3.5   898.4    0.00 
 244   21:00   0.00   64.5    45    1.6   292     2.9   898.6    0.00 
 244   21:10   0.00   67.5    35    1.1   320     2.4   898.6    0.00 
 244   21:20   0.00   71.9    28    2.4     5     3.8   898.7    0.00 
 244   21:30   0.00   67.7    39    2.4   319     4.8   898.9    0.00 
 244   21:40   0.00   65.2    39    2.4    46     3.7   898.9    0.00 
 244   21:50   0.00   70.7    29    2.5    77     4.5   898.9    0.00 
 244   22:00   0.00   74.1    27    5.3   112     7.3   898.8    0.00 
 244   22:10   0.00   76.5    26    4.3   135     6.0   898.7    0.00 
 244   22:20   0.00   70.8    32    1.0    22     2.4   898.7    0.00 
 244   22:30   0.00   71.2    32    2.7   352     4.6   898.8    0.00 
 244   22:40   0.00   73.5    28    1.9   344     5.1   898.9    0.00 
 244   22:50   0.00   72.6    31    2.1   329     4.0   898.9    0.00 
 244   23:00   0.00   65.8    44    2.5   299     4.2   898.9    0.00 
 244   23:10   0.00   61.3    51    4.7   343     6.1   898.9    0.00 
 244   23:20   0.00   61.7    50    3.5   327     5.9   898.9    0.00 
 244   23:30   0.00   59.4    56    1.5   309     4.2   898.9    0.00 
 244   23:40   0.00   58.7    60    1.9   278     3.9   899.0    0.00 
 244   23:50   0.00   59.4    62    0.4   343     1.4   899.1    0.00 
 245    0:00   0.00   61.3    58    1.7   287     2.6   899.1    0.00 
 245    0:10   0.00   61.5    55    1.5   327     2.3   899.1    0.00 
 245    0:20   0.00   60.8    57    2.0   262     3.6   899.2    0.00 
 245    0:30   0.00   59.3    60    1.2   232     3.2   899.2    0.00 
 245    0:40   0.00   58.5    62    2.9   273     3.8   899.2    0.00 
 245    0:50   0.00   58.2    62    1.1   333     1.5   899.2    0.00 
 245    1:00   0.00   59.8    58    2.2   354     3.1   899.2    0.00 
 245    1:10   0.00   59.7    56    1.0   335     2.7   899.3    0.00 
 245    1:20   0.00   58.4    60    2.0   281     3.5   899.3    0.00 
 245    1:30   0.00   56.7    63    2.3   339     3.6   899.4    0.00 
 245    1:40   0.00   56.4    63    0.7   309     2.2   899.4    0.00 
 245    1:50   0.00   56.3    62    0.7   288     2.4   899.5    0.00 
 245    2:00   0.00   56.4    62    0.7   289     3.3   899.5    0.00 
 245    2:10   0.00   55.9    64    2.3   320     3.9   899.5    0.00 
 245    2:20   0.00   55.5    65    1.6   311     3.4   899.6    0.00 
 245    2:30   0.00   56.0    64    1.0   340     2.0   899.6    0.00 
 245    2:40   0.00   57.0    61    2.8   351     4.7   899.7    0.00 
 245    2:50   0.00   57.0    62    4.5   344     5.6   899.7    0.00 
 245    3:00   0.00   56.3    63    2.9   310     5.1   899.7    0.00 
 245    3:10   0.00   55.7    64    1.4   302     4.0   899.8    0.00 
 245    3:20   0.00   57.0    59    2.8   336     4.3   899.9    0.00 
 245    3:30   0.00   56.1    62    3.2   302     5.3   899.9    0.00 
 245    3:40   0.00   56.0    62    2.6   308     3.6   899.9    0.00 
 245    3:50   0.00   54.8    65    3.3   327     4.7   900.0    0.00 
 245    4:00   0.00   54.1    66    4.0   326     5.1   900.1    0.00 
 245    4:10   0.00   53.4    68    2.7   337     3.7   900.2    0.00 
 245    4:20   0.00   55.0    64    4.0   321     5.9   900.2    0.00 
 245    4:30   0.00   53.0    68    3.2   323     3.8   900.3    0.00 
 245    4:40   0.00   52.1    70    2.7   313     3.8   900.4    0.00 
 245    4:50   0.00   53.0    68    1.2   303     2.3   900.5    0.00 
 245    5:00   0.00   53.9    66    1.3   334     2.5   900.6    0.00 
 245    5:10   0.00   53.3    67    3.5   328     4.9   900.6    0.00 
 245    5:20   0.01   52.1    70    4.1   333     4.5   900.8    0.00 
 245    5:30   0.01   54.4    65    3.2   326     4.4   900.9    0.00 
 245    5:40   0.01   55.8    60    2.5   309     3.2   901.0    0.00 
 245    5:50   0.05   54.3    65    2.7   312     4.5   901.2    0.00 
 245    6:00   0.08   55.3    65    4.1   302     5.7   901.3    0.00 
 245    6:10   0.10   58.4    60    3.3   290     5.6   901.3    0.00 
 245    6:20   0.13   61.8    54    2.7   321     4.6   901.4    0.00 
 245    6:30   0.16   64.4    47    3.7   318     5.6   901.4    0.00 
 245    6:40   0.19   65.9    47    3.0   326     7.0   901.4    0.00 
 245    6:50   0.22   67.1    41    5.8   346     8.5   901.3    0.00 
 245    7:00   0.25   68.7    38    5.0   339     7.5   901.4    0.00 
 245    7:10   0.28   70.6    37    3.6   338     5.6   901.3    0.00 
 245    7:20   0.31   72.1    35    4.4   338     6.9   901.2    0.00 
 245    7:30   0.34   73.8    33    4.1   334     6.8   901.2    0.00 
 245    7:40   0.38   74.9    32    4.5   351     7.2   901.1    0.00 
 245    7:50   0.41   76.1    31    4.2   343     6.7   901.0    0.00 
 245    8:00   0.44   77.6    29    3.4   336     5.0   900.9    0.00 
 245    8:10   0.47   79.1    28    3.1   340     6.1   900.9    0.00 
 245    8:20   0.49   80.7    26    2.7   314     4.7   900.7    0.00 
 245    8:30   0.52   82.3    25    2.2   335     4.6   900.5    0.00 
 245    8:40   0.55   84.5    24    1.2   266     3.3   900.4    0.00 
 245    8:50   0.57   85.0    23    1.9   249     3.9   900.3    0.00 
 245    9:00   0.59   85.6    23    2.0   228     4.5   900.2    0.00 
 245    9:10   0.62   86.6    22    1.6   225     4.2   900.2    0.00 
 245    9:20   0.64   88.8    21    3.8   159     8.6   900.1    0.00 
 245    9:30   0.66   89.5    18    8.2   142    14.1   900.0    0.00 
 245    9:40   0.68   89.4    18    9.6   141    14.1   899.9    0.00 
 245    9:50   0.70   89.8    17   10.9   144    14.9   899.9    0.00 
 245   10:00   0.72   90.2    18    9.5   150    13.7   899.9    0.00 
 245   10:10   0.73   90.3    17   11.1   142    18.8   899.7    0.00 
 245   10:20   0.75   90.7    17   11.0   148    17.1   899.8    0.00 
 245   10:30   0.76   91.2    17   10.0   154    15.6   899.7    0.00 
 245   10:40   0.77   91.3    17   10.6   154    18.0   899.7    0.00 
 245   10:50   0.79   91.6    17   10.4   147    16.7   899.6    0.00 
 245   11:00   0.79   91.8    16   10.4   140    17.5   899.5    0.00 
 245   11:10   0.80   92.4    17    9.7   148    16.6   899.5    0.00 
 245   11:20   0.81   92.5    16    9.7   151    16.5   899.4    0.00 
 245   11:30   0.81   93.2    16    8.8   161    15.1   899.2    0.00 
 245   11:40   0.81   93.7    16    7.9   151    13.0   899.1    0.00 
 245   11:50   0.82   93.1    14   10.4   127    17.0   899.0    0.00 
 245   12:00   0.82   93.6    15    9.0   153    15.7   898.9    0.00 
 245   12:10   0.81   94.1    16    8.8   145    16.4   898.8    0.00 
 245   12:20   0.81   94.2    15    8.7   152    16.0   898.6    0.00 
 245   12:30   0.81   94.3    15    8.2   142    13.9   898.5    0.00 
 245   12:40   0.80   94.4    15    9.7   142    17.0   898.3    0.00 

Return to Pahranagat N. Wildlife Refuge graphs page.


Western Regional Climate Center,wrcc@dri.edu